Portada
METAR-TAF:

METAR-TAF

Aeropuertos :

Aeropuerto Internacional de Auckland

Auckland, Nueva Zelanda

latitud: 37-01S, longitud: 174-48E, altitud: 7 m

Observación

El informe se hizo hace 18 minutos, a las 04:00 UTC
Viento 10 kt del suroeste
Temperatura 18°C
Humedad 68%
Presión 1024 hPa
Visibilidad 10 km o más

METAR: NZAA 220400Z AUTO 23010KT 9999 NCD 18/12 Q1024 NOSIG

Hora: 17:18 (04:18 UTC)

Pronóstico

El informe se hizo hace 5 horas y 17 minutos, a las 23:01 UTC
Pronóstico válido del 22 a las 00 UTC al 23 a las 00 UTC
Viento 10 kt del oeste-suroeste
Visibilidad 10 km o más
Nubes dispersas a una altura de 3000 ft
A partir de las 22 a las 0900 UTC
Viento 5 kt del sur
Visibilidad 10 km o más
Nubes dispersas a una altura de 3000 ft
Temporalmente
del 22 a las 14 UTC al 22 a las 18 UTC
Cielo nuboso a una altura de 1400 ft

TAF: NZAA 212301Z 2200/2300 24010KT 9999 SCT030 FM220900 18005KT 9999 SCT030 TEMPO 2214/2218 BKN014

Observaciones y pronósticos meteorológicos de más de 4000 aeropuertos (mensajes METAR y TAF).

Los puntos amarillos y rojos representan las estaciones disponibles.

Ponga el ratón en el punto deseado para ver el nombre de la estación.

Haga clic para ver las observaciones y los pronósticos meteorológicos.

Para cambiar el mapa : haga clic en los botones verdes con una cruz de color negro para hacer un zoom, en el botón verde con un guión para alejar o en las flechas verdes para mapas adyacentes.


METAR-TAF: